createdAt,value
2023-01-28T00:02:27.326Z,33.20
2023-01-28T00:04:55.474Z,31.30
2023-01-28T00:07:25.011Z,31.90
2023-01-28T00:09:53.092Z,31.95
2023-01-28T00:12:21.211Z,32.03
2023-01-28T00:14:49.235Z,30.90
2023-01-28T00:17:17.283Z,30.08
2023-01-28T00:19:45.479Z,30.17
2023-01-28T00:22:13.522Z,29.58
2023-01-28T00:24:42.965Z,30.30
2023-01-28T00:27:11.126Z,29.08
2023-01-28T00:29:39.825Z,29.10
2023-01-28T00:32:07.921Z,29.25
2023-01-28T00:34:36.140Z,28.60
2023-01-28T00:37:08.092Z,27.70
2023-01-28T00:39:36.276Z,28.45
2023-01-28T00:42:06.680Z,27.77
2023-01-28T00:44:34.768Z,28.00
2023-01-28T00:47:04.334Z,24.58
2023-01-28T00:49:32.387Z,26.92
2023-01-28T00:52:00.559Z,25.75
2023-01-28T00:54:28.590Z,26.67
2023-01-28T00:56:56.703Z,24.95
2023-01-28T00:59:27.892Z,25.98
2023-01-28T01:02:12.922Z,24.58
2023-01-28T01:04:41.201Z,24.95
2023-01-28T01:07:09.259Z,25.40
2023-01-28T01:09:37.476Z,25.58
2023-01-28T01:12:05.799Z,24.67
2023-01-28T01:14:35.702Z,24.27
2023-01-28T01:17:03.840Z,23.90
2023-01-28T01:19:32.481Z,23.50
2023-01-28T01:22:01.632Z,23.42
2023-01-28T01:24:31.410Z,22.83
2023-01-28T01:27:00.385Z,22.55
2023-01-28T01:29:30.039Z,22.58
2023-01-28T01:31:59.554Z,22.45
2023-01-28T01:34:27.707Z,22.83
2023-01-28T01:36:55.892Z,22.05
2023-01-28T01:39:24.079Z,21.95
2023-01-28T01:41:52.171Z,21.55
2023-01-28T01:44:53.897Z,21.60
2023-01-28T01:47:23.803Z,21.27
2023-01-28T01:49:51.975Z,22.15
2023-01-28T01:52:21.371Z,21.67
2023-01-28T01:54:51.140Z,21.50
2023-01-28T01:57:24.888Z,21.02
2023-01-28T01:59:53.130Z,20.63
2023-01-28T02:02:21.209Z,20.77
2023-01-28T02:04:50.728Z,20.10
2023-01-28T02:07:18.886Z,19.83
2023-01-28T02:09:47.218Z,20.02
2023-01-28T02:12:15.955Z,19.45
2023-01-28T02:14:45.517Z,19.50
2023-01-28T02:17:13.673Z,18.90
2023-01-28T02:19:44.273Z,19.67
2023-01-28T02:22:31.780Z,19.42
2023-01-28T02:25:32.211Z,18.55
2023-01-28T02:28:11.032Z,18.63
2023-01-28T02:30:41.467Z,18.45
2023-01-28T02:33:10.943Z,17.80
2023-01-28T02:35:40.819Z,17.80
2023-01-28T02:38:10.256Z,18.60
2023-01-28T02:41:00.904Z,18.08
2023-01-28T02:43:34.966Z,17.00
2023-01-28T02:46:22.480Z,16.42
2023-01-28T02:48:50.644Z,16.92
2023-01-28T02:51:24.886Z,17.00
2023-01-28T02:53:55.082Z,17.27
2023-01-28T02:56:29.604Z,16.23
2023-01-28T02:59:23.854Z,16.00
2023-01-28T03:01:58.438Z,16.15
2023-01-28T03:04:29.817Z,15.75
2023-01-28T03:07:00.031Z,16.60
2023-01-28T03:09:28.198Z,16.08
2023-01-28T03:12:15.050Z,16.25
2023-01-28T03:15:02.618Z,15.75
2023-01-28T03:17:50.940Z,15.52
2023-01-28T03:20:36.833Z,15.13
2023-01-28T03:23:26.469Z,14.68
2023-01-28T03:26:12.807Z,15.15
2023-01-28T03:28:58.076Z,14.38
2023-01-28T03:31:44.981Z,14.18
2023-01-28T03:34:31.755Z,13.50
2023-01-28T03:37:00.179Z,12.18
2023-01-28T03:39:47.401Z,12.85
2023-01-28T03:42:16.613Z,13.70
2023-01-28T03:45:09.359Z,13.05
2023-01-28T03:47:40.756Z,12.82
2023-01-28T03:50:12.136Z,12.77
2023-01-28T03:52:49.424Z,13.40
2023-01-28T03:55:30.918Z,12.48
2023-01-28T03:57:59.144Z,12.95
2023-01-28T04:00:27.288Z,12.77
2023-01-28T04:02:58.145Z,12.75
2023-01-28T04:05:26.494Z,12.38
2023-01-28T04:07:55.897Z,12.48
2023-01-28T04:10:49.782Z,11.88
2023-01-28T04:13:23.056Z,11.82
2023-01-28T04:15:51.547Z,11.95
2023-01-28T04:18:27.321Z,12.32
2023-01-28T04:20:57.696Z,11.90
2023-01-28T04:23:25.986Z,11.73
2023-01-28T04:25:54.100Z,11.48
2023-01-28T04:28:23.985Z,11.00
2023-01-28T04:30:53.256Z,11.25
2023-01-28T04:33:57.954Z,10.95
2023-01-28T04:36:40.251Z,11.55
2023-01-28T04:39:24.433Z,10.77
2023-01-28T04:42:17.582Z,10.90
2023-01-28T04:45:12.816Z,10.50
2023-01-28T04:48:01.071Z,10.85
2023-01-28T04:50:53.104Z,10.48
2023-01-28T04:53:34.423Z,10.60
2023-01-28T04:56:08.883Z,10.05
2023-01-28T04:58:37.716Z,10.73
2023-01-28T05:01:10.705Z,10.35
2023-01-28T05:03:38.855Z,10.05
2023-01-28T05:06:10.432Z,9.90
2023-01-28T05:08:42.907Z,9.80
2023-01-28T05:11:11.106Z,9.60
2023-01-28T05:13:39.810Z,10.07
2023-01-28T05:16:09.545Z,9.68
2023-01-28T05:18:38.163Z,9.85
2023-01-28T05:21:13.383Z,10.05
2023-01-28T05:23:41.850Z,9.77
2023-01-28T05:26:10.439Z,9.50
2023-01-28T05:28:38.483Z,10.00
2023-01-28T05:31:06.840Z,9.25
2023-01-28T05:33:35.152Z,9.45
2023-01-28T05:36:05.537Z,10.60
2023-01-28T05:38:35.154Z,14.45
2023-01-28T05:41:03.331Z,17.95
2023-01-28T05:43:31.448Z,17.55
2023-01-28T05:46:18.375Z,19.10
2023-01-28T05:49:01.853Z,15.30
2023-01-28T05:51:51.603Z,15.98
2023-01-28T05:54:23.758Z,15.38
2023-01-28T05:56:51.927Z,15.60
2023-01-28T05:59:20.060Z,16.52
2023-01-28T06:01:50.546Z,15.68
2023-01-28T06:04:19.009Z,15.80
2023-01-28T06:06:47.487Z,16.77
2023-01-28T06:09:16.148Z,17.10
2023-01-28T06:11:46.671Z,16.05
2023-01-28T06:14:15.591Z,18.45
2023-01-28T06:17:18.716Z,18.40
2023-01-28T06:20:03.037Z,20.90
2023-01-28T06:22:32.749Z,22.25
2023-01-28T06:25:01.469Z,23.67
2023-01-28T06:27:30.961Z,44.53
2023-01-28T06:29:59.067Z,38.60
2023-01-28T06:32:27.299Z,41.78
2023-01-28T06:34:55.498Z,32.75
2023-01-28T06:37:26.242Z,33.22
2023-01-28T06:39:54.457Z,43.70
2023-01-28T06:42:22.696Z,49.47
2023-01-28T06:44:52.218Z,47.22
2023-01-28T06:47:20.322Z,53.08
2023-01-28T06:49:48.467Z,53.35
2023-01-28T06:52:16.541Z,46.70
2023-01-28T06:54:44.649Z,52.90
2023-01-28T06:57:12.703Z,54.80
2023-01-28T06:59:40.843Z,51.78
2023-01-28T07:02:12.301Z,59.15
2023-01-28T07:04:40.498Z,73.10
2023-01-28T07:07:08.711Z,74.38
2023-01-28T07:09:36.847Z,70.15
2023-01-28T07:12:06.207Z,66.80
2023-01-28T07:14:34.295Z,63.83
2023-01-28T07:17:02.423Z,66.40
2023-01-28T07:19:31.872Z,77.53
2023-01-28T07:22:00.992Z,102.90
2023-01-28T07:24:29.160Z,93.40
2023-01-28T07:26:57.353Z,86.05
2023-01-28T07:29:25.408Z,85.60
2023-01-28T07:31:53.623Z,83.07
2023-01-28T07:34:21.871Z,81.55
2023-01-28T07:36:51.292Z,83.85
2023-01-28T07:39:19.398Z,87.45
2023-01-28T07:41:47.487Z,92.35
2023-01-28T07:44:32.219Z,96.30
2023-01-28T07:47:00.382Z,87.53
2023-01-28T07:49:28.706Z,81.85
2023-01-28T07:51:58.174Z,80.70
2023-01-28T07:54:27.536Z,79.35
2023-01-28T07:56:55.677Z,76.70
2023-01-28T07:59:23.825Z,75.70
2023-01-28T08:01:54.737Z,76.03
2023-01-28T08:04:23.228Z,74.47
2023-01-28T08:06:52.363Z,71.30
2023-01-28T08:09:21.867Z,71.18
2023-01-28T08:11:49.907Z,77.55
2023-01-28T08:14:17.984Z,78.95
2023-01-28T08:16:46.110Z,77.85
2023-01-28T08:19:14.283Z,79.22
2023-01-28T08:21:42.415Z,76.75
2023-01-28T08:24:10.606Z,80.97
2023-01-28T08:26:40.140Z,75.82
2023-01-28T08:29:08.250Z,76.13
2023-01-28T08:31:36.407Z,79.47
2023-01-28T08:34:04.565Z,77.68
2023-01-28T08:36:32.594Z,77.30
2023-01-28T08:39:00.698Z,77.03
2023-01-28T08:41:28.717Z,83.63
2023-01-28T08:43:58.456Z,75.20
2023-01-28T08:46:26.768Z,79.40
2023-01-28T08:48:54.881Z,90.40
2023-01-28T08:51:23.146Z,81.07
2023-01-28T08:53:51.619Z,84.97
2023-01-28T08:56:19.787Z,83.30
2023-01-28T08:58:47.877Z,81.88
2023-01-28T09:01:17.515Z,83.18
2023-01-28T09:03:45.751Z,82.75
2023-01-28T09:06:13.919Z,84.30
2023-01-28T09:08:41.995Z,85.32
2023-01-28T09:11:10.042Z,88.90
2023-01-28T09:13:38.127Z,87.43
2023-01-28T09:16:06.727Z,86.75
2023-01-28T09:18:36.518Z,87.20
2023-01-28T09:21:07.115Z,85.07
2023-01-28T09:23:36.333Z,84.38
2023-01-28T09:26:04.565Z,84.50
2023-01-28T09:28:32.937Z,85.47
2023-01-28T09:31:04.766Z,83.63
2023-01-28T09:33:33.158Z,82.63
2023-01-28T09:36:02.981Z,83.05
2023-01-28T09:38:31.736Z,82.63
2023-01-28T09:41:00.007Z,82.50
2023-01-28T09:43:40.807Z,82.97
2023-01-28T09:46:11.737Z,80.28
2023-01-28T09:48:41.331Z,77.22
2023-01-28T09:51:12.267Z,75.75
2023-01-28T09:53:42.283Z,77.40
2023-01-28T09:56:12.920Z,77.13
2023-01-28T09:58:42.871Z,79.82
2023-01-28T10:01:24.115Z,80.38
2023-01-28T10:03:54.764Z,81.22
2023-01-28T10:06:28.796Z,78.88
2023-01-28T10:09:08.238Z,77.38
2023-01-28T10:11:45.279Z,84.78
2023-01-28T10:14:16.280Z,84.35
2023-01-28T10:16:44.984Z,81.28
2023-01-28T10:19:17.138Z,84.80
2023-01-28T10:21:48.727Z,90.68
2023-01-28T10:24:19.878Z,88.05
2023-01-28T10:26:48.034Z,91.40
2023-01-28T10:29:18.422Z,89.13
2023-01-28T10:31:53.298Z,92.05
2023-01-28T10:34:21.540Z,93.00
2023-01-28T10:36:51.062Z,91.88
2023-01-28T10:39:21.203Z,91.78
2023-01-28T10:41:57.895Z,91.50
2023-01-28T10:44:31.997Z,89.28
2023-01-28T10:47:02.731Z,89.13
2023-01-28T10:49:31.073Z,90.43
2023-01-28T10:52:00.618Z,85.70
2023-01-28T10:54:29.754Z,87.35
2023-01-28T10:57:00.635Z,87.85
2023-01-28T10:59:29.511Z,88.80
2023-01-28T11:01:58.774Z,86.68
2023-01-28T11:04:29.715Z,87.50
2023-01-28T11:07:13.815Z,86.95
2023-01-28T11:09:46.645Z,85.45
2023-01-28T11:12:19.243Z,85.65
2023-01-28T11:14:51.406Z,83.22
2023-01-28T11:17:19.821Z,89.25
2023-01-28T11:19:48.017Z,85.53
2023-01-28T11:22:22.020Z,86.28
2023-01-28T11:24:51.679Z,86.15
2023-01-28T11:27:20.121Z,86.68
2023-01-28T11:29:48.453Z,86.72
2023-01-28T11:32:20.185Z,88.03
2023-01-28T11:34:51.956Z,88.55
2023-01-28T11:37:22.799Z,91.40
2023-01-28T11:40:01.925Z,87.72
2023-01-28T11:42:30.137Z,85.82
2023-01-28T11:44:58.360Z,88.45
2023-01-28T11:47:43.489Z,89.30
2023-01-28T11:50:17.826Z,87.53
2023-01-28T11:53:08.391Z,87.53
2023-01-28T11:55:46.656Z,88.53
2023-01-28T11:58:24.139Z,86.20
2023-01-28T12:01:02.210Z,94.75
2023-01-28T12:03:51.484Z,95.68
2023-01-28T12:06:27.992Z,93.18
2023-01-28T12:09:00.842Z,91.90
2023-01-28T12:12:05.986Z,88.95
2023-01-28T12:14:37.788Z,86.80
2023-01-28T12:17:13.198Z,88.07
2023-01-28T12:19:52.403Z,87.05
2023-01-28T12:22:50.167Z,85.10
2023-01-28T12:25:26.074Z,85.18
2023-01-28T12:28:00.905Z,80.72
2023-01-28T12:30:36.944Z,79.43
2023-01-28T12:33:20.717Z,78.82
2023-01-28T12:35:55.836Z,77.85
2023-01-28T12:38:28.629Z,77.72
2023-01-28T12:41:00.555Z,80.15
2023-01-28T12:43:44.032Z,77.30
2023-01-28T12:46:16.222Z,77.38
2023-01-28T12:48:45.172Z,74.88
2023-01-28T12:51:15.301Z,73.88
2023-01-28T12:53:47.148Z,76.03
2023-01-28T12:56:17.022Z,74.03
2023-01-28T12:58:48.737Z,74.00
2023-01-28T13:01:19.572Z,73.97
2023-01-28T13:03:51.355Z,74.70
2023-01-28T13:06:22.765Z,76.03
2023-01-28T13:08:50.934Z,72.75
2023-01-28T13:11:19.000Z,70.90
2023-01-28T13:13:48.910Z,70.55
2023-01-28T13:16:19.365Z,71.15
2023-01-28T13:18:49.516Z,76.03
2023-01-28T13:21:32.452Z,69.80
2023-01-28T13:24:08.464Z,70.43
2023-01-28T13:26:44.864Z,70.85
2023-01-28T13:29:31.361Z,70.25
2023-01-28T13:32:01.135Z,68.18
2023-01-28T13:34:34.745Z,67.25
2023-01-28T13:37:06.159Z,67.38
2023-01-28T13:39:35.575Z,66.13
2023-01-28T13:42:11.969Z,67.43
2023-01-28T13:44:41.522Z,65.97
2023-01-28T13:47:21.733Z,65.18
2023-01-28T13:49:51.181Z,66.88
2023-01-28T13:52:21.662Z,66.82
2023-01-28T13:54:52.535Z,64.32
2023-01-28T13:57:49.387Z,62.85
2023-01-28T14:00:23.885Z,61.17
2023-01-28T14:03:47.855Z,61.67
2023-01-28T14:06:35.261Z,60.65
2023-01-28T14:09:23.885Z,60.30
2023-01-28T14:12:17.491Z,61.10
2023-01-28T14:15:17.695Z,60.08
2023-01-28T14:17:47.793Z,60.75
2023-01-28T14:20:19.637Z,62.00
2023-01-28T14:22:48.127Z,61.97
2023-01-28T14:25:18.568Z,64.47
2023-01-28T14:27:48.854Z,61.50
2023-01-28T14:30:20.023Z,61.00
2023-01-28T14:32:50.490Z,63.80
2023-01-28T14:35:21.063Z,60.72
2023-01-28T14:37:49.255Z,60.20
2023-01-28T14:40:17.906Z,60.30
2023-01-28T14:42:47.333Z,58.03
2023-01-28T14:45:24.387Z,59.08
2023-01-28T14:48:05.231Z,58.38
2023-01-28T14:50:44.991Z,57.03
2023-01-28T14:53:22.372Z,56.78
2023-01-28T14:55:53.656Z,56.63
2023-01-28T14:58:23.391Z,55.28
2023-01-28T15:00:55.190Z,54.25
2023-01-28T15:03:25.683Z,56.10
2023-01-28T15:06:05.043Z,56.20
2023-01-28T15:08:33.389Z,64.10
2023-01-28T15:11:01.769Z,51.60
2023-01-28T15:13:30.519Z,53.05
2023-01-28T15:16:00.764Z,50.83
2023-01-28T15:18:33.531Z,53.22
2023-01-28T15:21:01.685Z,53.70
2023-01-28T15:23:32.671Z,55.65
2023-01-28T15:26:00.800Z,54.83
2023-01-28T15:28:30.066Z,55.92
2023-01-28T15:30:59.563Z,58.55
2023-01-28T15:33:27.870Z,56.65
2023-01-28T15:35:58.253Z,64.00
2023-01-28T15:38:28.970Z,65.68
2023-01-28T15:40:58.428Z,65.88
2023-01-28T15:43:28.055Z,63.33
2023-01-28T15:45:56.553Z,61.53
2023-01-28T15:48:25.086Z,58.45
2023-01-28T15:51:00.757Z,59.67
2023-01-28T15:53:28.959Z,60.08
2023-01-28T15:56:05.561Z,58.35
2023-01-28T15:58:37.086Z,58.38
2023-01-28T16:01:13.786Z,56.72
2023-01-28T16:03:42.746Z,55.10
2023-01-28T16:06:13.334Z,55.97
2023-01-28T16:08:43.338Z,54.70
2023-01-28T16:11:11.411Z,53.97
2023-01-28T16:13:42.988Z,52.50
2023-01-28T16:16:11.258Z,53.25
2023-01-28T16:18:41.081Z,53.38
2023-01-28T16:21:10.550Z,51.90
2023-01-28T16:23:40.560Z,51.10
2023-01-28T16:26:20.823Z,49.60
2023-01-28T16:28:48.930Z,50.17
2023-01-28T16:31:17.016Z,50.35
2023-01-28T16:33:45.197Z,50.42
2023-01-28T16:36:13.702Z,50.15
2023-01-28T16:38:43.262Z,48.03
2023-01-28T16:41:15.605Z,46.75
2023-01-28T16:43:43.725Z,47.00
2023-01-28T16:46:13.427Z,47.28
2023-01-28T16:48:41.549Z,45.38
2023-01-28T16:51:14.687Z,46.22
2023-01-28T16:53:44.388Z,46.28
2023-01-28T16:56:35.947Z,44.08
2023-01-28T16:59:03.054Z,44.33
2023-01-28T17:01:31.458Z,43.47
2023-01-28T17:03:59.561Z,43.08
2023-01-28T17:06:27.766Z,44.25
2023-01-28T17:08:57.247Z,42.85
2023-01-28T17:11:25.722Z,43.40
2023-01-28T17:13:53.866Z,40.88
2023-01-28T17:16:21.997Z,41.20
2023-01-28T17:18:51.390Z,39.25
2023-01-28T17:21:19.500Z,38.55
2023-01-28T17:23:47.592Z,39.70
2023-01-28T17:26:17.296Z,37.90
2023-01-28T17:28:45.500Z,36.67
2023-01-28T17:31:14.768Z,36.50
2023-01-28T17:33:43.063Z,37.58
2023-01-28T17:36:11.281Z,36.20
2023-01-28T17:38:39.482Z,36.90
2023-01-28T17:41:08.510Z,34.67
2023-01-28T17:43:38.136Z,35.05
2023-01-28T17:46:11.881Z,34.22
2023-01-28T17:48:40.124Z,35.03
2023-01-28T17:51:08.235Z,33.13
2023-01-28T17:53:36.644Z,33.72
2023-01-28T17:56:04.942Z,34.58
2023-01-28T17:58:33.095Z,32.25
2023-01-28T18:01:08.918Z,32.47
2023-01-28T18:03:37.140Z,31.58
2023-01-28T18:06:07.323Z,31.73
2023-01-28T18:08:35.983Z,32.33
2023-01-28T18:11:04.060Z,30.48
2023-01-28T18:13:32.252Z,31.15
2023-01-28T18:16:00.314Z,31.15
2023-01-28T18:18:29.819Z,30.52
2023-01-28T18:20:58.734Z,29.90
2023-01-28T18:23:26.999Z,29.38
2023-01-28T18:25:57.275Z,29.70
2023-01-28T18:28:25.542Z,29.48
2023-01-28T18:30:53.662Z,29.60
2023-01-28T18:33:22.034Z,28.77
2023-01-28T18:35:51.544Z,28.98
2023-01-28T18:38:19.735Z,28.80
2023-01-28T18:40:47.810Z,28.27
2023-01-28T18:43:15.982Z,27.25
2023-01-28T18:45:45.660Z,26.55
2023-01-28T18:48:13.888Z,28.38
2023-01-28T18:50:41.943Z,26.90
2023-01-28T18:53:11.487Z,26.42
2023-01-28T18:55:39.554Z,25.95
2023-01-28T18:58:07.645Z,25.25
2023-01-28T19:00:35.696Z,25.67
2023-01-28T19:03:03.821Z,26.20
2023-01-28T19:05:36.109Z,25.73
2023-01-28T19:08:05.101Z,25.42
2023-01-28T19:10:34.589Z,24.80
2023-01-28T19:13:02.856Z,25.08
2023-01-28T19:15:31.168Z,24.25
2023-01-28T19:17:59.328Z,24.48
2023-01-28T19:20:27.493Z,23.67
2023-01-28T19:22:55.619Z,23.90
2023-01-28T19:25:23.887Z,25.15
2023-01-28T19:27:55.724Z,23.85
2023-01-28T19:30:23.895Z,23.52
2023-01-28T19:32:54.028Z,22.38
2023-01-28T19:35:22.211Z,23.58
2023-01-28T19:37:50.367Z,22.55
2023-01-28T19:40:18.965Z,23.45
2023-01-28T19:42:47.089Z,22.35
2023-01-28T19:45:16.823Z,22.08
2023-01-28T19:47:45.140Z,22.33
2023-01-28T19:50:13.265Z,21.98
2023-01-28T19:52:41.383Z,22.20
2023-01-28T19:55:10.541Z,21.73
2023-01-28T19:57:38.656Z,22.73
2023-01-28T20:00:08.278Z,21.50
2023-01-28T20:02:37.841Z,21.10
2023-01-28T20:05:06.691Z,21.50
2023-01-28T20:07:34.769Z,20.85
2023-01-28T20:10:03.033Z,20.73
2023-01-28T20:12:31.328Z,21.00
2023-01-28T20:14:59.573Z,20.83
2023-01-28T20:17:28.576Z,19.92
2023-01-28T20:19:58.054Z,20.65
2023-01-28T20:22:26.129Z,20.08
2023-01-28T20:24:57.286Z,20.33
2023-01-28T20:27:25.598Z,20.77
2023-01-28T20:29:53.782Z,20.35
2023-01-28T20:32:23.208Z,19.83
2023-01-28T20:34:51.987Z,18.70
2023-01-28T20:37:21.423Z,20.10
2023-01-28T20:39:49.575Z,19.55
2023-01-28T20:42:17.623Z,19.25
2023-01-28T20:44:45.742Z,18.65
2023-01-28T20:47:13.822Z,19.05
2023-01-28T20:49:42.040Z,19.05
2023-01-28T20:52:10.101Z,18.40
2023-01-28T20:54:39.606Z,18.60
2023-01-28T20:57:07.769Z,18.88
2023-01-28T20:59:36.556Z,18.30
2023-01-28T21:02:05.439Z,18.00
2023-01-28T21:04:34.439Z,17.55
2023-01-28T21:07:02.576Z,17.85
2023-01-28T21:09:30.784Z,17.75
2023-01-28T21:12:00.274Z,17.65
2023-01-28T21:14:28.329Z,19.42
2023-01-28T21:16:56.528Z,17.95
2023-01-28T21:19:24.945Z,18.10
2023-01-28T21:21:53.046Z,16.65
2023-01-28T21:24:21.117Z,18.27
2023-01-28T21:26:49.220Z,18.95
2023-01-28T21:29:18.944Z,18.48
2023-01-28T21:31:47.129Z,18.33
2023-01-28T21:34:16.056Z,20.98
2023-01-28T21:36:44.249Z,19.75
2023-01-28T21:39:12.342Z,19.60
2023-01-28T21:41:40.871Z,22.40
2023-01-28T21:44:08.919Z,21.23
2023-01-28T21:46:38.452Z,23.35
2023-01-28T21:49:06.535Z,22.40
2023-01-28T21:51:36.572Z,23.45
2023-01-28T21:54:05.098Z,25.75
2023-01-28T21:56:33.188Z,23.90
2023-01-28T21:59:18.857Z,26.65
2023-01-28T22:01:48.962Z,37.90
2023-01-28T22:04:17.159Z,46.90
2023-01-28T22:06:45.406Z,44.22
2023-01-28T22:09:14.133Z,41.10
2023-01-28T22:11:42.786Z,39.88
2023-01-28T22:14:11.131Z,41.05
2023-01-28T22:16:39.216Z,40.22
2023-01-28T22:19:08.713Z,38.42
2023-01-28T22:21:41.163Z,38.13
2023-01-28T22:24:11.391Z,37.80
2023-01-28T22:26:39.608Z,37.22
2023-01-28T22:29:07.716Z,37.75
2023-01-28T22:31:35.985Z,37.75
2023-01-28T22:34:04.423Z,36.13
2023-01-28T22:36:33.957Z,35.47
2023-01-28T22:39:02.263Z,34.33
2023-01-28T22:41:30.426Z,36.05
2023-01-28T22:44:01.501Z,36.33
2023-01-28T22:46:29.805Z,36.50
2023-01-28T22:48:57.937Z,34.90
2023-01-28T22:51:26.786Z,34.95
2023-01-28T22:53:56.233Z,36.00
2023-01-28T22:56:25.175Z,35.25
2023-01-28T22:58:55.575Z,35.25
2023-01-28T23:01:23.777Z,35.75
2023-01-28T23:03:52.043Z,33.85
2023-01-28T23:06:20.890Z,36.83
2023-01-28T23:08:49.063Z,34.75
2023-01-28T23:11:25.308Z,35.20
2023-01-28T23:14:10.958Z,35.20
2023-01-28T23:17:02.505Z,33.17
2023-01-28T23:19:48.065Z,32.90
2023-01-28T23:22:34.571Z,32.25
2023-01-28T23:25:02.695Z,32.20
2023-01-28T23:27:32.403Z,31.92
2023-01-28T23:30:00.594Z,32.30
2023-01-28T23:32:28.623Z,33.42
2023-01-28T23:34:57.358Z,33.65
2023-01-28T23:37:25.385Z,33.42
2023-01-28T23:39:53.518Z,32.05
2023-01-28T23:42:23.556Z,30.55
2023-01-28T23:44:53.218Z,30.50
2023-01-28T23:47:21.261Z,31.85
2023-01-28T23:49:49.389Z,30.02
2023-01-28T23:52:17.507Z,29.30
2023-01-28T23:54:45.684Z,29.65
2023-01-28T23:57:13.791Z,29.48
2023-01-28T23:59:42.542Z,30.00
